EGNV/MME METAR and TAF weather

Enter ICAO airport designator
Station Type Date Time Source
EGNV METAR 2020/01/22 20:50 UTC NOAA

EGNV 222050Z 24004KT 9999 BCFG NSC 03/02 Q1036


Station Type Date Time Source
EGNV Decoded METAR 2020/01/22 20:50 UTC NOAA

Tees-Side, United Kingdom (EGNV) 54-31N 001-25W
Jan 22, 2020 - 03:50 PM EST / 2020.01.22 2050 UTC
Wind: from the WSW (240 degrees) at 5 MPH (4 KT):0
Visibility: greater than 7 mile(s):0
Weather: patches of fog
Temperature: 37 F (3 C)
Dew Point: 35 F (2 C)
Relative Humidity: 93%
Pressure (altimeter): 30.59 in. Hg (1036 hPa)
ob: EGNV 222050Z 24004KT 9999 BCFG NSC 03/02 Q1036
cycle: 21

Station Type Date Time Source
EGNV TAF 2016/01/23 12:00 UTC NOAA

TAF EGNV 231059Z 2312/2321 18008KT 9999 FEW030 PROB40 2319/2321 6000 RADZ BKN014

Example: see airport list